Time;durP1;ratioP1;P1;durP2;ratioP2;P2;SDS_P1;SDS_P2;PMS_P1;PMS_P2;Temp;Humidity;BMP_temperature;BMP_pressure;BME280_temperature;BME280_humidity;BME280_pressure;Samples;Min_cycle;Max_cycle;Signal;HPM_P1;HPM_P2
2023/06/20 00:00:24;;;;;;;;;;;26.70;67.50;;;26.93;46.65;98203.28;5027467;28;113742;-81
2023/06/20 00:02:53;;;;;;;;;;;26.70;67.60;;;26.91;46.38;98207.78;5023782;27;124324;-81
2023/06/20 00:05:20;;;;;;;;;;;26.70;67.80;;;26.89;46.46;98208.19;5028371;28;124287;-81
2023/06/20 00:07:46;;;;;;;;;;;26.70;67.80;;;26.86;46.10;98214.75;5028643;28;114355;-81
2023/06/20 00:10:12;;;;;;;;;;;26.60;67.80;;;26.81;45.83;98224.59;5030084;28;114312;-81
2023/06/20 00:12:40;;;;;;;;;;;26.60;67.50;;;26.72;46.43;98244.19;5028116;28;124296;-81
2023/06/20 00:15:07;;;;;;;;;;;26.50;67.50;;;26.64;45.98;98243.53;5029849;28;124104;-81
2023/06/20 00:17:33;;;;;;;;;;;26.40;67.40;;;26.58;46.07;98250.16;5036291;27;114031;-81
2023/06/20 00:20:05;;;;;;;;;;;26.40;67.20;;;26.55;45.80;98256.69;5039903;27;113685;-81
2023/06/20 00:22:35;;;;;;;;;;;26.30;67.10;;;26.52;45.91;98266.84;5040674;27;124344;-81
2023/06/20 00:25:04;;;;;;;;;;;26.30;67.10;;;26.47;45.93;98266.50;5043125;27;123947;-80
2023/06/20 00:27:33;;;;;;;;;;;26.20;67.10;;;26.44;45.70;98271.81;5042288;27;114715;-80
2023/06/20 00:30:00;;;;;;;;;;;26.20;67.10;;;26.42;45.93;98279.94;5038603;27;113715;-81
2023/06/20 00:32:26;;;;;;;;;;;26.20;67.10;;;26.43;45.72;98295.69;5034359;27;123178;-81
2023/06/20 00:34:52;;;;;;;;;;;26.20;67.00;;;26.43;45.53;98309.84;5047708;27;124290;-81
2023/06/20 00:37:18;;;;;;;;;;;26.20;67.10;;;26.42;45.99;98341.47;5029605;27;115768;-81
2023/06/20 00:39:47;;;;;;;;;;;26.10;67.30;;;26.34;46.02;98371.94;5044993;27;115571;-81
2023/06/20 00:42:32;;;;;;;;;;;26.00;68.00;;;26.23;46.40;98394.75;5043014;27;124212;-81
2023/06/20 00:45:00;;;;;;;;;;;25.90;68.60;;;26.11;47.50;98391.72;5048165;27;123989;-81
2023/06/20 00:47:27;;;;;;;;;;;25.70;70.00;;;25.96;49.92;98437.22;5045517;27;114989;-81
2023/06/20 00:49:56;;;;;;;;;;;25.50;73.70;;;25.68;52.10;98429.06;5037548;27;113669;-79
2023/06/20 00:52:23;;;;;;;;;;;25.30;76.20;;;25.39;52.87;98420.94;5036736;27;124108;-79
2023/06/20 00:54:49;;;;;;;;;;;25.10;77.70;;;25.10;54.25;98426.88;5041821;27;124021;-79
2023/06/20 00:57:17;;;;;;;;;;;24.90;80.00;;;24.85;55.58;98429.94;5039859;27;114628;-79
2023/06/20 00:59:48;;;;;;;;;;;24.70;82.10;;;24.60;56.57;98437.81;5040015;27;113817;-79
2023/06/20 01:02:15;;;;;;;;;;;24.40;83.70;;;24.37;57.28;98436.34;5029553;27;124156;-79
2023/06/20 01:04:44;;;;;;;;;;;24.20;85.10;;;24.15;57.81;98444.16;5029100;27;124202;-80
2023/06/20 01:07:28;;;;;;;;;;;24.00;86.40;;;23.98;58.73;98447.88;5036363;27;114362;-80
2023/06/20 01:09:57;;;;;;;;;;;23.90;87.70;;;23.83;59.13;98463.28;5042001;27;113624;-80
2023/06/20 01:12:42;;;;;;;;;;;23.70;89.20;;;23.70;59.87;98460.88;5052186;27;125024;-80
2023/06/20 01:15:44;;;;;;;;;;;23.50;90.30;;;23.49;60.12;98467.41;5048378;27;123865;-79
2023/06/20 01:18:32;;;;;;;;;;;23.40;90.70;;;23.39;60.76;98462.59;5017624;27;113578;-79
2023/06/20 01:21:07;;;;;;;;;;;23.20;91.30;;;23.30;61.37;98453.78;5044522;27;112927;-79
2023/06/20 01:23:42;;;;;;;;;;;23.10;92.00;;;23.21;61.96;98442.91;5038693;27;124769;-79
2023/06/20 01:26:17;;;;;;;;;;;23.00;92.60;;;23.14;61.95;98445.75;5042041;27;124042;-79
2023/06/20 01:28:54;;;;;;;;;;;22.90;92.90;;;23.09;62.07;98437.69;5037814;27;115393;-80
2023/06/20 01:31:42;;;;;;;;;;;22.90;93.10;;;23.02;62.39;98438.50;5048217;27;114391;-81
2023/06/20 01:34:15;;;;;;;;;;;22.70;93.70;;;22.98;62.45;98440.53;5047069;27;124849;-84
2023/06/20 01:36:49;;;;;;;;;;;22.70;93.90;;;22.92;62.35;98428.84;5021834;27;124592;-82
2023/06/20 01:39:21;;;;;;;;;;;22.70;94.10;;;22.88;62.74;98435.69;5034773;27;114268;-81
2023/06/20 01:41:48;;;;;;;;;;;22.60;94.40;;;22.84;62.98;98415.97;5014661;28;113687;-81
2023/06/20 01:44:16;;;;;;;;;;;22.60;94.80;;;22.82;62.90;98412.75;5040458;27;124178;-81
2023/06/20 01:46:45;;;;;;;;;;;22.60;94.80;;;22.83;63.12;98403.09;5018679;27;123850;-80
2023/06/20 01:49:15;;;;;;;;;;;22.50;95.10;;;22.83;63.10;98417.16;5042711;27;114579;-80
2023/06/20 01:51:42;;;;;;;;;;;22.60;95.20;;;22.78;63.15;98420.38;5027425;27;113580;-80
2023/06/20 01:54:09;;;;;;;;;;;22.50;95.40;;;22.76;63.18;98403.13;5026909;27;124112;-81
2023/06/20 01:56:36;;;;;;;;;;;22.50;95.60;;;22.77;63.12;98404.72;5040222;27;123917;-80
2023/06/20 01:59:03;;;;;;;;;;;22.50;95.60;;;22.79;63.21;98404.31;5029556;27;114471;-81
2023/06/20 02:01:31;;;;;;;;;;;22.50;95.60;;;22.79;63.37;98401.50;5030609;27;113743;-81
2023/06/20 02:03:58;;;;;;;;;;;22.50;96.00;;;22.79;63.36;98398.69;5039772;27;124283;-80
2023/06/20 02:06:24;;;;;;;;;;;22.50;96.10;;;22.79;63.13;98407.13;5022928;28;123023;-81
2023/06/20 02:08:51;;;;;;;;;;;22.50;96.20;;;22.78;63.13;98406.31;5043137;27;114542;-80
2023/06/20 02:11:21;;;;;;;;;;;22.50;96.20;;;22.78;63.09;98406.31;5036322;27;113790;-80
2023/06/20 02:13:50;;;;;;;;;;;22.50;96.20;;;22.78;63.38;98405.50;5032027;27;124307;-81
2023/06/20 02:16:17;;;;;;;;;;;22.50;96.40;;;22.78;63.25;98406.31;5027526;27;124073;-81
2023/06/20 02:18:43;;;;;;;;;;;22.50;96.30;;;22.79;63.07;98387.41;5029904;27;115170;-81
2023/06/20 02:21:18;;;;;;;;;;;22.50;96.40;;;22.78;62.94;98389.41;5034858;27;114626;-81
2023/06/20 02:23:52;;;;;;;;;;;22.50;96.30;;;22.79;62.83;98393.84;5034234;27;124005;-80
2023/06/20 02:26:31;;;;;;;;;;;22.50;96.40;;;22.78;62.79;98372.50;5021936;27;122982;-81
2023/06/20 02:28:59;;;;;;;;;;;22.50;96.50;;;22.78;62.87;98377.34;5044494;27;114242;-81
2023/06/20 02:31:28;;;;;;;;;;;22.50;96.40;;;22.79;62.83;98370.50;5035831;27;112215;-80
2023/06/20 02:33:58;;;;;;;;;;;22.50;96.40;;;22.84;62.63;98359.63;5038626;27;124136;-80
2023/06/20 02:36:27;;;;;;;;;;;22.50;96.40;;;22.86;62.33;98364.84;5036554;27;124572;-81
2023/06/20 02:38:55;;;;;;;;;;;22.60;96.40;;;22.89;61.97;98367.69;5030614;27;114255;-81
2023/06/20 02:41:22;;;;;;;;;;;22.60;96.30;;;22.94;62.01;98367.25;5040468;27;113773;-81
2023/06/20 02:43:48;;;;;;;;;;;22.60;96.30;;;22.99;61.94;98365.25;5038869;27;124905;-80
2023/06/20 02:46:31;;;;;;;;;;;22.70;96.30;;;23.04;61.59;98362.03;5037109;27;123890;-80
2023/06/20 02:49:28;;;;;;;;;;;22.70;96.30;;;23.05;61.70;98372.06;5042210;27;114461;-81
2023/06/20 02:52:03;;;;;;;;;;;22.70;96.30;;;23.05;61.72;98372.91;5032608;27;113236;-80
2023/06/20 02:54:39;;;;;;;;;;;22.70;96.20;;;23.07;61.61;98358.38;5045714;27;124880;-80
2023/06/20 02:57:11;;;;;;;;;;;22.70;96.10;;;23.10;61.51;98357.56;5019405;27;123706;-81
2023/06/20 02:59:39;;;;;;;;;;;22.80;96.20;;;23.13;61.40;98353.94;5029904;27;114255;-80
2023/06/20 03:02:07;;;;;;;;;;;24.00;96.60;;;23.15;61.37;98351.53;5037460;27;113989;-80
2023/06/20 03:04:33;;;;;;;;;;;22.80;96.40;;;23.15;61.22;98360.78;5027662;27;124374;-80
2023/06/20 03:07:01;;;;;;;;;;;22.80;96.40;;;23.16;60.87;98364.41;5044825;27;123846;-80
2023/06/20 03:09:30;;;;;;;;;;;22.90;96.00;;;23.15;60.96;98374.06;5039323;27;115532;-80
2023/06/20 03:11:58;;;;;;;;;;;22.90;96.00;;;23.11;61.07;98367.66;5046842;27;114779;-80
2023/06/20 03:14:24;;;;;;;;;;;22.90;96.10;;;23.05;61.62;98372.91;5045698;27;123925;-80
2023/06/20 03:16:53;;;;;;;;;;;22.80;96.10;;;23.07;61.15;98378.13;5047517;27;124132;-80
2023/06/20 03:19:19;;;;;;;;;;;22.80;96.10;;;23.07;61.27;98378.13;5048048;27;115065;-79
2023/06/20 03:21:46;;;;;;;;;;;22.80;96.20;;;23.08;61.47;98368.47;5029959;27;114283;-80
2023/06/20 03:24:12;;;;;;;;;;;22.80;96.30;;;23.09;61.19;98382.13;5047455;27;124188;-80
2023/06/20 03:26:38;;;;;;;;;;;22.80;96.20;;;23.10;60.98;98378.09;5047595;27;124129;-80
2023/06/20 03:29:05;;;;;;;;;;;22.80;96.10;;;23.11;61.06;98384.56;5044179;27;114399;-80
2023/06/20 03:31:31;;;;;;;;;;;22.80;96.10;;;23.12;60.95;98375.69;5013248;28;112722;-80
2023/06/20 03:33:58;;;;;;;;;;;22.80;96.10;;;23.13;61.07;98376.47;5026799;27;124962;-80
2023/06/20 03:36:24;;;;;;;;;;;22.80;96.20;;;23.15;60.98;98379.69;5040921;27;122987;-80
2023/06/20 03:38:50;;;;;;;;;;;22.80;96.10;;;23.16;60.56;98370.06;5026063;27;115418;-80
2023/06/20 03:41:16;;;;;;;;;;;22.80;96.10;;;23.19;60.99;98374.88;5039747;27;113788;-80
2023/06/20 03:43:45;;;;;;;;;;;22.90;96.10;;;23.21;60.64;98378.06;5046948;27;124759;-80
2023/06/20 03:46:11;;;;;;;;;;;22.90;96.10;;;23.23;60.58;98378.47;5048776;27;123062;-79
2023/06/20 03:48:37;;;;;;;;;;;22.90;96.10;;;23.25;60.48;98384.50;5051264;27;114369;-80
2023/06/20 03:51:06;;;;;;;;;;;22.90;96.10;;;23.21;60.67;98371.63;5042671;27;113632;-78
2023/06/20 03:53:32;;;;;;;;;;;22.90;96.00;;;23.19;60.53;98365.63;5047252;27;124252;-80
2023/06/20 03:55:59;;;;;;;;;;;22.90;96.00;;;23.18;60.37;98367.59;5046560;27;123680;-80
2023/06/20 03:58:25;;;;;;;;;;;22.90;95.90;;;23.19;60.28;98369.22;5033911;27;115448;-79
2023/06/20 04:00:51;;;;;;;;;;;22.90;95.90;;;23.20;60.48;98368.00;5049190;27;115260;-80
2023/06/20 04:03:20;;;;;;;;;;;22.90;95.90;;;23.21;60.50;98363.97;5037272;27;124257;-79
2023/06/20 04:05:46;;;;;;;;;;;22.90;96.10;;;23.24;60.46;98360.34;5033678;27;126332;-80
2023/06/20 04:08:13;;;;;;;;;;;22.90;96.00;;;23.25;60.41;98356.31;5030065;27;113319;-80
2023/06/20 04:10:41;;;;;;;;;;;22.90;96.00;;;23.29;60.30;98370.38;5043486;27;113246;-80
2023/06/20 04:13:07;;;;;;;;;;;22.90;96.00;;;23.32;60.08;98373.22;5046254;27;124673;-80
2023/06/20 04:15:33;;;;;;;;;;;23.00;96.00;;;23.35;60.04;98371.59;5034930;27;122881;-79
2023/06/20 04:18:00;;;;;;;;;;;23.00;96.10;;;23.37;60.16;98375.63;5039633;27;114393;-80
2023/06/20 04:20:26;;;;;;;;;;;23.00;96.00;;;23.40;60.19;98373.16;5042709;27;113905;-79
2023/06/20 04:22:52;;;;;;;;;;;23.00;96.00;;;23.42;60.12;98373.56;5039668;27;124666;-79
2023/06/20 04:25:19;;;;;;;;;;;23.00;96.00;;;23.42;59.87;98371.53;5047908;27;124398;-78
2023/06/20 04:27:53;;;;;;;;;;;23.10;96.00;;;23.45;60.00;98375.56;5035032;27;115065;-79
2023/06/20 04:30:20;;;;;;;;;;;23.10;96.00;;;23.45;59.79;98369.94;5049421;27;113869;-79
2023/06/20 04:32:46;;;;;;;;;;;23.10;95.90;;;23.47;59.82;98378.78;5042506;27;123928;-79
2023/06/20 04:35:15;;;;;;;;;;;23.10;95.90;;;23.49;59.63;98373.53;5029327;27;122636;-79
2023/06/20 04:37:41;;;;;;;;;;;23.10;95.80;;;23.50;59.59;98361.03;5033968;27;114559;-79
2023/06/20 04:40:11;;;;;;;;;;;23.10;95.70;;;23.49;59.34;98371.53;5029565;27;113631;-79
2023/06/20 04:42:37;;;;;;;;;;;23.10;95.60;;;23.49;59.32;98362.25;5037382;27;124317;-79
2023/06/20 04:45:04;;;;;;;;;;;23.10;95.60;;;23.51;59.17;98365.50;5037521;27;124660;-79
2023/06/20 04:47:32;;;;;;;;;;;23.20;95.50;;;23.49;59.11;98362.25;5032239;27;114477;-79
2023/06/20 04:50:03;;;;;;;;;;;23.10;95.50;;;23.52;59.00;98358.63;5017170;27;114372;-79
2023/06/20 04:52:32;;;;;;;;;;;23.20;95.50;;;23.55;59.01;98358.59;5018905;27;124370;-79
2023/06/20 04:55:04;;;;;;;;;;;23.20;95.50;;;23.58;59.01;98351.34;5024654;28;122344;-79
2023/06/20 04:57:32;;;;;;;;;;;23.20;95.40;;;23.60;58.84;98348.91;5019631;28;114489;-79
2023/06/20 04:59:59;;;;;;;;;;;23.20;95.40;;;23.61;58.77;98353.31;5015433;27;113910;-81
2023/06/20 05:02:25;;;;;;;;;;;23.20;95.30;;;23.61;58.83;98361.78;5027912;28;124456;-79
2023/06/20 05:04:52;;;;;;;;;;;23.20;95.30;;;23.62;58.63;98365.44;5012705;28;123990;-82
2023/06/20 05:07:18;;;;;;;;;;;23.20;95.20;;;23.63;58.59;98367.03;5018008;28;114050;-82
2023/06/20 05:09:45;;;;;;;;;;;23.30;95.20;;;23.65;58.78;98368.22;5025981;27;114060;-77
2023/06/20 05:12:11;;;;;;;;;;;23.30;95.20;;;23.66;58.87;98372.66;5030174;27;123694;-77
2023/06/20 05:14:37;;;;;;;;;;;23.30;95.30;;;23.68;58.69;98389.16;5026473;28;123860;-77
2023/06/20 05:17:03;;;;;;;;;;;23.30;95.30;;;23.67;58.65;98382.72;5029868;27;113334;-77
2023/06/20 05:19:30;;;;;;;;;;;23.30;95.30;;;23.68;58.50;98392.00;5024269;28;113705;-77
2023/06/20 05:21:56;;;;;;;;;;;23.30;95.30;;;23.70;58.52;98398.81;5019663;28;124184;-76
2023/06/20 05:24:24;;;;;;;;;;;23.30;95.30;;;23.72;58.44;98396.44;5022299;27;124006;-78
2023/06/20 05:26:50;;;;;;;;;;;23.30;95.20;;;23.73;58.38;98395.22;5023783;27;114652;-77
2023/06/20 05:29:19;;;;;;;;;;;23.30;95.20;;;23.75;58.35;98387.16;5025064;28;113262;-77
2023/06/20 05:31:48;;;;;;;;;;;23.40;95.50;;;23.79;58.30;98385.09;5023232;27;124464;-75
2023/06/20 05:34:14;;;;;;;;;;;23.40;95.20;;;23.80;58.31;98386.72;5014945;28;124482;-75
2023/06/20 05:36:40;;;;;;;;;;;23.40;95.20;;;23.83;58.01;98389.91;5017481;28;115437;-75
2023/06/20 05:39:09;;;;;;;;;;;23.50;95.20;;;23.86;58.38;98384.28;5012618;27;114789;-74
2023/06/20 05:41:38;;;;;;;;;;;23.50;95.20;;;23.94;58.23;98390.69;5021735;27;124619;-75
2023/06/20 05:44:04;;;;;;;;;;;23.50;95.20;;;24.01;58.04;98382.94;5012831;28;123255;-75
2023/06/20 05:46:30;;;;;;;;;;;23.60;95.20;;;24.08;57.89;98387.75;5013822;28;114396;-75
2023/06/20 05:48:59;;;;;;;;;;;23.60;95.10;;;24.16;57.71;98386.50;5028369;27;113694;-75
2023/06/20 05:51:28;;;;;;;;;;;23.70;95.10;;;24.20;57.38;98386.44;5023203;28;124172;-75
2023/06/20 05:53:57;;;;;;;;;;;23.70;95.00;;;24.25;57.20;98395.28;5023485;28;124349;-74
2023/06/20 05:56:26;;;;;;;;;;;23.70;94.90;;;24.32;56.77;98383.16;5019461;28;114353;-74
2023/06/20 05:58:52;;;;;;;;;;;23.80;94.80;;;24.38;56.88;98386.31;5029404;27;112959;-74
2023/06/20 06:01:18;;;;;;;;;;;23.90;94.70;;;24.46;56.62;98388.69;5011873;28;123703;-74
2023/06/20 06:03:47;;;;;;;;;;;23.90;94.50;;;24.51;55.93;98387.47;5021989;27;124391;-75
2023/06/20 06:06:16;;;;;;;;;;;24.00;94.40;;;24.56;56.05;98387.00;5023787;28;114675;-74
2023/06/20 06:08:42;;;;;;;;;;;24.00;94.10;;;24.59;55.75;98383.34;5027315;28;112700;-74
2023/06/20 06:11:09;;;;;;;;;;;24.10;94.00;;;24.65;55.49;98389.34;5010374;27;125395;-74
2023/06/20 06:13:38;;;;;;;;;;;24.20;93.90;;;24.72;54.91;98399.78;5014036;28;123419;-77
2023/06/20 06:16:05;;;;;;;;;;;24.20;93.70;;;24.78;54.61;98398.13;5027122;28;115085;-74
2023/06/20 06:18:31;;;;;;;;;;;24.20;93.40;;;24.81;54.50;98403.72;5010570;27;113133;-75
2023/06/20 06:20:58;;;;;;;;;;;24.30;93.30;;;24.87;54.18;98393.56;5024005;28;124532;-75
2023/06/20 06:23:24;;;;;;;;;;;24.30;93.20;;;24.98;53.84;98401.94;5020084;27;123952;-77
2023/06/20 06:25:52;;;;;;;;;;;24.40;93.00;;;25.03;53.55;98395.84;5039926;27;115663;-76
2023/06/20 06:28:18;;;;;;;;;;;24.50;92.90;;;25.08;53.40;98401.03;5017628;27;114633;-75
2023/06/20 06:30:49;;;;;;;;;;;24.50;92.80;;;25.11;53.14;98405.84;5013003;28;125027;-74
2023/06/20 06:33:15;;;;;;;;;;;24.60;92.60;;;25.16;53.34;98401.00;5020403;27;122635;-75
2023/06/20 06:35:44;;;;;;;;;;;24.70;92.60;;;25.23;52.87;98398.91;5021972;27;114694;-75
2023/06/20 06:38:10;;;;;;;;;;;24.70;92.40;;;25.30;52.66;98403.66;5021082;27;113094;-75
2023/06/20 06:40:37;;;;;;;;;;;24.80;92.30;;;25.32;52.69;98404.84;5001595;27;125058;-74
2023/06/20 06:43:03;;;;;;;;;;;24.80;92.20;;;25.38;52.96;98404.38;5020275;28;124052;-75
2023/06/20 06:45:29;;;;;;;;;;;24.90;92.20;;;25.44;52.57;98411.19;5018184;27;114654;-75
2023/06/20 06:47:55;;;;;;;;;;;24.90;92.00;;;25.48;52.25;98406.28;5019270;27;113678;-75
2023/06/20 06:50:22;;;;;;;;;;;24.90;91.90;;;25.52;52.23;98407.03;5018424;27;124347;-76
2023/06/20 06:52:48;;;;;;;;;;;25.00;91.80;;;25.56;51.95;98404.97;5007822;27;124188;-76
2023/06/20 06:55:14;;;;;;;;;;;25.00;91.70;;;25.65;52.10;98410.91;5022323;27;114284;-75
2023/06/20 06:57:41;;;;;;;;;;;25.10;91.60;;;25.71;51.75;98417.72;5017707;27;112995;-75
2023/06/20 07:00:11;;;;;;;;;;;25.20;91.50;;;25.78;51.61;98414.00;5022677;28;123969;-75
2023/06/20 07:02:40;;;;;;;;;;;25.30;91.40;;;25.84;51.34;98406.66;5017447;27;124157;-75
2023/06/20 07:05:07;;;;;;;;;;;25.30;91.30;;;25.88;50.63;98401.75;5017145;28;114638;-75
2023/06/20 07:07:33;;;;;;;;;;;25.30;91.10;;;25.89;51.11;98408.22;5023224;27;113857;-75
2023/06/20 07:10:00;;;;;;;;;;;25.30;91.00;;;25.89;50.70;98403.34;5017281;28;124287;-75
2023/06/20 07:12:26;;;;;;;;;;;25.30;90.90;;;25.93;50.58;98398.44;5024914;27;123609;-74
2023/06/20 07:14:56;;;;;;;;;;;25.40;90.80;;;25.97;50.56;98396.34;5010581;28;115293;-75
2023/06/20 07:17:23;;;;;;;;;;;25.40;90.70;;;26.06;50.24;98393.03;5018313;27;115247;-75
2023/06/20 07:19:52;;;;;;;;;;;25.50;90.70;;;26.14;50.08;98390.84;5013891;28;124863;-75
2023/06/20 07:22:19;;;;;;;;;;;25.60;90.60;;;26.21;50.39;98397.22;5029022;27;124585;-74
2023/06/20 07:24:46;;;;;;;;;;;25.70;90.50;;;26.32;49.93;98390.59;5033226;27;114281;-75
2023/06/20 07:27:12;;;;;;;;;;;25.70;90.50;;;26.42;50.02;98401.75;5037274;27;114112;-74
2023/06/20 07:29:43;;;;;;;;;;;25.90;90.40;;;26.54;49.36;98385.41;5026467;27;124343;-77
2023/06/20 07:32:14;;;;;;;;;;;26.00;90.20;;;26.63;48.77;98391.34;5025617;27;124700;-76
2023/06/20 07:34:40;;;;;;;;;;;27.60;90.30;;;26.67;48.42;98394.91;5012468;28;113362;-76
2023/06/20 07:37:07;;;;;;;;;;;26.00;89.20;;;26.72;48.87;98391.56;5022426;27;113945;-75
2023/06/20 07:39:33;;;;;;;;;;;26.10;89.00;;;26.78;48.71;98401.19;5020384;27;124335;-77
2023/06/20 07:41:59;;;;;;;;;;;26.20;89.10;;;26.88;48.72;98391.69;5020896;27;123881;-78
2023/06/20 07:44:26;;;;;;;;;;;26.30;89.00;;;26.96;48.17;98389.53;5025791;27;114430;-78
2023/06/20 07:46:52;;;;;;;;;;;26.40;88.20;;;26.98;47.86;98389.09;5024801;27;112926;-75
2023/06/20 07:49:18;;;;;;;;;;;26.30;87.70;;;26.99;47.60;98393.53;5019863;27;123938;-75
2023/06/20 07:51:46;;;;;;;;;;;26.40;87.30;;;27.02;47.62;98392.66;5024012;27;124135;-76
2023/06/20 07:54:14;;;;;;;;;;;26.50;87.10;;;27.03;47.44;98389.41;5026561;27;119689;-77
2023/06/20 07:56:41;;;;;;;;;;;26.50;86.90;;;27.10;47.68;98399.78;5027601;27;118906;-76
2023/06/20 07:59:09;;;;;;;;;;;26.60;86.90;;;27.17;47.58;98405.38;5020273;27;124199;-76
2023/06/20 08:01:35;;;;;;;;;;;26.60;86.60;;;27.21;47.31;98393.94;5025223;27;124512;-78
2023/06/20 08:04:02;;;;;;;;;;;26.70;86.30;;;27.26;47.38;98394.25;5016343;27;120488;-75
2023/06/20 08:06:28;;;;;;;;;;;26.70;86.00;;;27.31;46.91;98393.75;5021320;28;118738;-75
2023/06/20 08:08:54;;;;;;;;;;;26.80;85.70;;;27.35;46.70;98390.03;5018486;27;124225;-75
2023/06/20 08:11:24;;;;;;;;;;;26.80;85.30;;;27.37;46.52;98385.50;5015646;27;124295;-75
2023/06/20 08:13:50;;;;;;;;;;;26.90;85.30;;;27.40;46.66;98383.84;5017242;27;119675;-75
2023/06/20 08:16:16;;;;;;;;;;;26.90;85.10;;;27.42;46.43;98387.84;5017683;28;119533;-76
2023/06/20 08:18:42;;;;;;;;;;;26.90;84.40;;;27.41;46.43;98388.31;5024458;28;124207;-77
2023/06/20 08:21:09;;;;;;;;;;;27.00;84.00;;;27.45;45.98;98391.84;5024355;27;123787;-77
2023/06/20 08:23:35;;;;;;;;;;;27.00;83.80;;;27.49;45.79;98392.59;5022717;28;119685;-78
2023/06/20 08:26:01;;;;;;;;;;;27.10;83.40;;;27.52;46.21;98386.03;5025417;27;118072;-76
2023/06/20 08:28:30;;;;;;;;;;;27.10;83.50;;;27.54;46.15;98377.91;5011382;28;124277;-77
2023/06/20 08:30:56;;;;;;;;;;;27.10;83.40;;;27.47;46.06;98378.03;5019570;27;123449;-76
2023/06/20 08:33:23;;;;;;;;;;;27.10;83.00;;;27.49;46.32;98381.25;5024874;27;118813;-76
2023/06/20 08:35:50;;;;;;;;;;;27.10;83.10;;;27.52;45.40;98394.56;5007113;27;118855;-77
2023/06/20 08:38:17;;;;;;;;;;;27.10;82.40;;;27.56;45.78;98383.91;5019537;27;124312;-77
2023/06/20 08:40:43;;;;;;;;;;;27.20;82.60;;;27.65;45.61;98378.47;5023852;27;123827;-78
2023/06/20 08:43:15;;;;;;;;;;;27.20;83.40;;;27.75;45.60;98377.44;5023430;27;119375;-77
2023/06/20 08:45:42;;;;;;;;;;;27.30;82.80;;;27.85;45.56;98377.66;5024315;27;118703;-76
2023/06/20 08:48:09;;;;;;;;;;;27.30;82.60;;;27.90;45.08;98377.94;5033966;27;124671;-77
2023/06/20 08:50:37;;;;;;;;;;;27.40;82.30;;;27.96;44.89;98364.81;5022617;27;122967;-77
2023/06/20 08:53:06;;;;;;;;;;;27.50;82.00;;;28.02;44.38;98367.91;5024591;27;120609;-77
2023/06/20 08:55:33;;;;;;;;;;;27.50;81.20;;;28.06;44.19;98368.66;5021641;27;119690;-77
2023/06/20 08:57:59;;;;;;;;;;;27.60;80.70;;;28.09;44.00;98367.75;5025513;28;124838;-77
2023/06/20 09:00:26;;;;;;;;;;;27.60;80.40;;;28.12;43.87;98369.72;5010234;27;124021;-76
2023/06/20 09:02:56;;;;;;;;;;;27.60;80.00;;;28.15;43.94;98365.19;5018427;27;120178;-77
2023/06/20 09:05:22;;;;;;;;;;;27.70;79.90;;;28.18;43.86;98365.13;5012058;27;117820;-78
2023/06/20 09:07:51;;;;;;;;;;;27.70;79.60;;;28.23;43.64;98369.47;5015893;27;124834;-77
2023/06/20 09:10:23;;;;;;;;;;;27.70;79.40;;;28.28;43.84;98356.78;5008030;28;122898;-77
2023/06/20 09:12:51;;;;;;;;;;;27.80;79.40;;;28.32;43.74;98354.66;5013225;27;119604;-77
2023/06/20 09:15:22;;;;;;;;;;;27.80;79.30;;;28.36;43.82;98350.47;5015743;27;119018;-77
2023/06/20 09:17:56;;;;;;;;;;;27.90;79.20;;;28.40;43.04;98336.19;4996080;28;123436;-77
2023/06/20 09:20:32;;;;;;;;;;;27.90;78.50;;;28.44;43.34;98339.75;5021674;27;123259;-79
2023/06/20 09:22:59;;;;;;;;;;;27.90;78.50;;;28.47;42.97;98340.91;5007482;28;118568;-77
2023/06/20 09:25:27;;;;;;;;;;;28.00;78.00;;;28.52;42.71;98340.38;5010240;28;118009;-78
2023/06/20 09:27:57;;;;;;;;;;;28.10;77.80;;;28.56;42.58;98336.22;5050272;27;123773;-77
2023/06/20 09:30:28;;;;;;;;;;;28.10;77.30;;;28.59;42.71;98343.84;5010520;27;123974;-77
2023/06/20 09:33:01;;;;;;;;;;;28.20;77.30;;;28.62;42.59;98327.94;5000957;28;118595;-77
2023/06/20 09:35:29;;;;;;;;;;;28.20;77.20;;;28.68;42.46;98336.72;5000590;28;117769;-82
2023/06/20 09:37:56;;;;;;;;;;;28.30;76.80;;;28.72;42.11;98311.81;5018557;27;125642;-78
2023/06/20 09:40:22;;;;;;;;;;;28.30;76.30;;;28.77;42.20;98314.91;5014943;27;124026;-78
2023/06/20 09:42:57;;;;;;;;;;;28.30;76.40;;;28.83;42.17;98315.19;5021350;27;120907;-77
2023/06/20 09:45:24;;;;;;;;;;;28.30;76.40;;;28.87;42.16;98318.72;5017820;28;119660;-78
2023/06/20 09:47:51;;;;;;;;;;;28.40;75.80;;;28.94;41.19;98317.75;5015815;28;124341;-79
2023/06/20 09:50:19;;;;;;;;;;;28.40;74.80;;;28.98;40.45;98315.59;5016060;27;123730;-77
2023/06/20 09:52:47;;;;;;;;;;;28.50;73.70;;;29.00;40.58;98321.63;5020627;27;119770;-77
2023/06/20 09:55:15;;;;;;;;;;;28.50;73.40;;;29.03;40.25;98301.59;5021576;27;119432;-78
2023/06/20 09:57:43;;;;;;;;;;;28.60;73.00;;;29.10;40.18;98306.34;5010521;27;124263;-78
2023/06/20 10:00:16;;;;;;;;;;;28.60;72.30;;;29.15;39.42;98302.13;5008334;27;124136;-78
2023/06/20 10:02:44;;;;;;;;;;;28.70;71.50;;;29.17;39.83;98296.78;5022008;27;118976;-77
2023/06/20 10:05:20;;;;;;;;;;;28.70;71.20;;;29.22;38.91;98301.94;5020299;27;118904;-77
2023/06/20 10:07:48;;;;;;;;;;;28.80;70.50;;;29.29;39.13;98293.97;5020370;27;123969;-77
2023/06/20 10:10:16;;;;;;;;;;;28.80;69.80;;;29.35;38.81;98299.91;5017439;28;123997;-77
2023/06/20 10:12:46;;;;;;;;;;;28.90;70.00;;;29.41;38.33;98295.25;5021784;27;119134;-77
2023/06/20 10:15:14;;;;;;;;;;;28.90;69.20;;;29.47;38.46;98287.75;5014921;27;119137;-77
2023/06/20 10:17:41;;;;;;;;;;;29.00;69.20;;;29.55;38.30;98281.84;5013422;27;124177;-77
2023/06/20 10:20:24;;;;;;;;;;;29.10;68.50;;;29.61;37.02;98289.38;5013038;27;124070;-77
2023/06/20 10:22:50;;;;;;;;;;;29.10;67.10;;;29.67;36.75;98289.63;5008693;27;119577;-78
2023/06/20 10:25:18;;;;;;;;;;;29.10;66.70;;;29.73;37.21;98296.34;5014032;27;118526;-77
2023/06/20 10:27:57;;;;;;;;;;;29.20;66.80;;;29.78;36.73;98297.84;5013869;27;124581;-78
2023/06/20 10:30:54;;;;;;;;;;;29.30;66.20;;;29.82;36.49;98284.28;5010651;28;124140;-78
2023/06/20 10:33:25;;;;;;;;;;;29.40;65.70;;;29.88;36.44;98286.09;5019573;28;120541;-78
2023/06/20 10:35:56;;;;;;;;;;;29.40;65.50;;;29.92;36.56;98275.38;5006692;27;119985;-78
2023/06/20 10:38:26;;;;;;;;;;;29.50;65.30;;;30.00;36.89;98284.50;5005932;27;124542;-79
2023/06/20 10:41:11;;;;;;;;;;;29.50;65.30;;;30.05;35.85;98288.84;5021459;27;124955;-78
2023/06/20 10:43:47;;;;;;;;;;;29.60;64.00;;;30.09;34.52;98275.25;5020929;27;119645;-78
2023/06/20 10:46:13;;;;;;;;;;;29.60;62.30;;;30.15;34.10;98282.00;5015940;27;118689;-78
2023/06/20 10:49:00;;;;;;;;;;;29.70;60.80;;;30.16;32.93;98280.72;5007296;27;124330;-77
2023/06/20 10:51:26;;;;;;;;;;;29.70;58.30;;;30.20;33.36;98287.13;5022171;27;124491;-78
2023/06/20 10:53:52;;;;;;;;;;;29.70;58.80;;;30.27;33.36;98280.41;5010796;27;119389;-78
2023/06/20 10:56:25;;;;;;;;;;;29.80;58.80;;;30.33;31.94;98262.25;5009260;28;117724;-78
2023/06/20 10:58:52;;;;;;;;;;;29.90;56.90;;;30.41;32.18;98273.41;5007038;27;123805;-77
2023/06/20 11:01:18;;;;;;;;;;;30.70;57.80;;;30.47;32.23;98275.22;5003989;28;123740;-77
2023/06/20 11:03:45;;;;;;;;;;;30.00;57.20;;;30.55;32.33;98270.88;5008685;28;118034;-78
2023/06/20 11:06:18;;;;;;;;;;;30.10;57.20;;;30.63;32.51;98273.44;5006447;27;118762;-77
2023/06/20 11:08:47;;;;;;;;;;;30.10;57.50;;;30.69;32.92;98278.13;5016988;27;124562;-78
2023/06/20 11:11:13;;;;;;;;;;;30.20;58.10;;;30.76;32.62;98266.47;5001570;28;124588;-78
2023/06/20 11:13:42;;;;;;;;;;;30.30;57.70;;;30.86;32.49;98267.34;5006801;27;118952;-78
2023/06/20 11:16:18;;;;;;;;;;;30.30;57.10;;;30.91;32.18;98258.19;5006786;28;119190;-77